sensor_id;sensor_type;location;lat;lon;timestamp;P1;durP1;ratioP1;P2;durP2;ratioP2
64225;SDS011;50545;56.064;26.178;2022-11-11T00:02:17;5.55;;;3.25;;
64225;SDS011;50545;56.064;26.178;2022-11-11T00:04:44;6.78;;;2.95;;
64225;SDS011;50545;56.064;26.178;2022-11-11T00:07:12;4.65;;;2.90;;
64225;SDS011;50545;56.064;26.178;2022-11-11T00:09:39;4.00;;;2.83;;
64225;SDS011;50545;56.064;26.178;2022-11-11T00:12:06;6.70;;;3.22;;
64225;SDS011;50545;56.064;26.178;2022-11-11T00:14:33;5.18;;;3.10;;
64225;SDS011;50545;56.064;26.178;2022-11-11T00:17:00;7.60;;;3.17;;
64225;SDS011;50545;56.064;26.178;2022-11-11T00:19:46;7.68;;;3.97;;
64225;SDS011;50545;56.064;26.178;2022-11-11T00:22:32;6.18;;;3.42;;
64225;SDS011;50545;56.064;26.178;2022-11-11T00:25:18;6.63;;;3.10;;
64225;SDS011;50545;56.064;26.178;2022-11-11T00:27:46;6.30;;;3.25;;
64225;SDS011;50545;56.064;26.178;2022-11-11T00:30:13;6.63;;;3.20;;
64225;SDS011;50545;56.064;26.178;2022-11-11T00:32:41;6.68;;;3.67;;
64225;SDS011;50545;56.064;26.178;2022-11-11T00:35:08;6.32;;;2.90;;
64225;SDS011;50545;56.064;26.178;2022-11-11T00:37:54;6.25;;;3.20;;
64225;SDS011;50545;56.064;26.178;2022-11-11T00:40:33;5.63;;;3.35;;
64225;SDS011;50545;56.064;26.178;2022-11-11T00:43:01;9.20;;;3.70;;
64225;SDS011;50545;56.064;26.178;2022-11-11T00:45:28;4.93;;;3.15;;
64225;SDS011;50545;56.064;26.178;2022-11-11T00:47:55;5.43;;;3.13;;
64225;SDS011;50545;56.064;26.178;2022-11-11T00:50:41;5.45;;;3.08;;
64225;SDS011;50545;56.064;26.178;2022-11-11T00:53:25;5.70;;;3.15;;
64225;SDS011;50545;56.064;26.178;2022-11-11T00:55:54;6.00;;;3.33;;
64225;SDS011;50545;56.064;26.178;2022-11-11T00:58:22;6.00;;;3.85;;
64225;SDS011;50545;56.064;26.178;2022-11-11T01:00:50;7.05;;;3.38;;
64225;SDS011;50545;56.064;26.178;2022-11-11T01:03:21;5.35;;;3.33;;
64225;SDS011;50545;56.064;26.178;2022-11-11T01:05:48;5.70;;;3.30;;
64225;SDS011;50545;56.064;26.178;2022-11-11T01:08:17;7.32;;;3.60;;
64225;SDS011;50545;56.064;26.178;2022-11-11T01:10:44;5.43;;;3.20;;
64225;SDS011;50545;56.064;26.178;2022-11-11T01:15:44;6.97;;;3.25;;
64225;SDS011;50545;56.064;26.178;2022-11-11T01:18:15;6.47;;;3.42;;
64225;SDS011;50545;56.064;26.178;2022-11-11T01:20:44;7.18;;;3.22;;
64225;SDS011;50545;56.064;26.178;2022-11-11T01:23:12;4.75;;;3.13;;
64225;SDS011;50545;56.064;26.178;2022-11-11T01:25:40;6.78;;;3.60;;
64225;SDS011;50545;56.064;26.178;2022-11-11T01:28:08;6.45;;;3.25;;
64225;SDS011;50545;56.064;26.178;2022-11-11T01:30:36;6.00;;;3.30;;
64225;SDS011;50545;56.064;26.178;2022-11-11T01:33:03;6.15;;;3.22;;
64225;SDS011;50545;56.064;26.178;2022-11-11T01:35:31;5.35;;;3.25;;
64225;SDS011;50545;56.064;26.178;2022-11-11T01:38:03;4.75;;;2.70;;
64225;SDS011;50545;56.064;26.178;2022-11-11T01:40:30;5.22;;;2.90;;
64225;SDS011;50545;56.064;26.178;2022-11-11T01:46:08;6.95;;;3.40;;
64225;SDS011;50545;56.064;26.178;2022-11-11T01:48:45;5.40;;;2.85;;
64225;SDS011;50545;56.064;26.178;2022-11-11T01:51:40;5.55;;;3.15;;
64225;SDS011;50545;56.064;26.178;2022-11-11T01:54:20;7.43;;;2.80;;
64225;SDS011;50545;56.064;26.178;2022-11-11T01:56:55;5.95;;;2.60;;
64225;SDS011;50545;56.064;26.178;2022-11-11T01:59:29;4.32;;;2.67;;
64225;SDS011;50545;56.064;26.178;2022-11-11T02:01:58;3.22;;;2.40;;
64225;SDS011;50545;56.064;26.178;2022-11-11T02:04:28;6.72;;;3.55;;
64225;SDS011;50545;56.064;26.178;2022-11-11T02:07:15;5.10;;;2.50;;
64225;SDS011;50545;56.064;26.178;2022-11-11T02:09:44;4.22;;;2.28;;
64225;SDS011;50545;56.064;26.178;2022-11-11T02:12:13;4.53;;;2.53;;
64225;SDS011;50545;56.064;26.178;2022-11-11T02:14:59;7.15;;;2.70;;
64225;SDS011;50545;56.064;26.178;2022-11-11T02:17:29;5.88;;;2.60;;
64225;SDS011;50545;56.064;26.178;2022-11-11T02:19:58;5.38;;;2.28;;
64225;SDS011;50545;56.064;26.178;2022-11-11T02:25:16;7.85;;;2.70;;
64225;SDS011;50545;56.064;26.178;2022-11-11T02:27:48;7.07;;;2.28;;
64225;SDS011;50545;56.064;26.178;2022-11-11T02:30:18;7.13;;;2.65;;
64225;SDS011;50545;56.064;26.178;2022-11-11T02:32:47;3.95;;;2.30;;
64225;SDS011;50545;56.064;26.178;2022-11-11T02:35:17;6.82;;;2.17;;
64225;SDS011;50545;56.064;26.178;2022-11-11T02:37:51;5.30;;;2.15;;
64225;SDS011;50545;56.064;26.178;2022-11-11T02:40:20;4.95;;;2.60;;
64225;SDS011;50545;56.064;26.178;2022-11-11T02:42:51;6.00;;;2.40;;
64225;SDS011;50545;56.064;26.178;2022-11-11T02:45:18;6.63;;;2.50;;
64225;SDS011;50545;56.064;26.178;2022-11-11T02:47:45;6.50;;;2.30;;
64225;SDS011;50545;56.064;26.178;2022-11-11T02:50:13;6.45;;;2.15;;
64225;SDS011;50545;56.064;26.178;2022-11-11T02:52:40;5.38;;;1.95;;
64225;SDS011;50545;56.064;26.178;2022-11-11T02:55:08;5.38;;;2.13;;
64225;SDS011;50545;56.064;26.178;2022-11-11T02:57:35;5.55;;;2.10;;
64225;SDS011;50545;56.064;26.178;2022-11-11T03:00:03;6.22;;;1.92;;
64225;SDS011;50545;56.064;26.178;2022-11-11T03:02:31;6.30;;;1.90;;
64225;SDS011;50545;56.064;26.178;2022-11-11T03:04:59;6.28;;;2.00;;
64225;SDS011;50545;56.064;26.178;2022-11-11T03:07:26;4.97;;;1.90;;
64225;SDS011;50545;56.064;26.178;2022-11-11T03:09:54;5.78;;;1.75;;
64225;SDS011;50545;56.064;26.178;2022-11-11T03:12:21;6.95;;;2.08;;
64225;SDS011;50545;56.064;26.178;2022-11-11T03:14:48;5.60;;;1.55;;
64225;SDS011;50545;56.064;26.178;2022-11-11T03:17:15;6.30;;;1.80;;
64225;SDS011;50545;56.064;26.178;2022-11-11T03:20:01;1.80;;;1.30;;
64225;SDS011;50545;56.064;26.178;2022-11-11T03:23:09;4.68;;;1.80;;
64225;SDS011;50545;56.064;26.178;2022-11-11T03:25:40;3.63;;;1.65;;
64225;SDS011;50545;56.064;26.178;2022-11-11T03:28:10;3.20;;;1.42;;
64225;SDS011;50545;56.064;26.178;2022-11-11T03:30:39;4.87;;;1.60;;
64225;SDS011;50545;56.064;26.178;2022-11-11T03:33:09;3.53;;;1.75;;
64225;SDS011;50545;56.064;26.178;2022-11-11T03:35:36;4.82;;;1.80;;
64225;SDS011;50545;56.064;26.178;2022-11-11T03:38:05;5.68;;;1.88;;
64225;SDS011;50545;56.064;26.178;2022-11-11T03:40:50;8.65;;;1.90;;
64225;SDS011;50545;56.064;26.178;2022-11-11T03:43:20;3.33;;;1.60;;
64225;SDS011;50545;56.064;26.178;2022-11-11T03:45:50;3.45;;;1.60;;
64225;SDS011;50545;56.064;26.178;2022-11-11T03:48:18;2.30;;;1.50;;
64225;SDS011;50545;56.064;26.178;2022-11-11T03:50:46;3.45;;;1.50;;
64225;SDS011;50545;56.064;26.178;2022-11-11T03:53:14;3.53;;;1.60;;
64225;SDS011;50545;56.064;26.178;2022-11-11T03:55:42;7.63;;;2.25;;
64225;SDS011;50545;56.064;26.178;2022-11-11T03:58:09;6.60;;;1.95;;
64225;SDS011;50545;56.064;26.178;2022-11-11T04:00:38;2.78;;;1.33;;
64225;SDS011;50545;56.064;26.178;2022-11-11T04:03:12;5.82;;;1.83;;
64225;SDS011;50545;56.064;26.178;2022-11-11T04:05:59;7.32;;;2.05;;
64225;SDS011;50545;56.064;26.178;2022-11-11T04:08:45;8.80;;;1.90;;
64225;SDS011;50545;56.064;26.178;2022-11-11T04:11:32;7.55;;;2.03;;
64225;SDS011;50545;56.064;26.178;2022-11-11T04:14:03;7.10;;;1.90;;
64225;SDS011;50545;56.064;26.178;2022-11-11T04:16:54;4.97;;;1.70;;
64225;SDS011;50545;56.064;26.178;2022-11-11T04:19:21;5.88;;;1.60;;
64225;SDS011;50545;56.064;26.178;2022-11-11T04:22:08;4.50;;;1.60;;
64225;SDS011;50545;56.064;26.178;2022-11-11T04:24:35;3.15;;;1.55;;
64225;SDS011;50545;56.064;26.178;2022-11-11T04:27:21;6.00;;;1.50;;
64225;SDS011;50545;56.064;26.178;2022-11-11T04:29:48;4.47;;;1.58;;
64225;SDS011;50545;56.064;26.178;2022-11-11T04:32:18;7.35;;;1.60;;
64225;SDS011;50545;56.064;26.178;2022-11-11T04:35:06;3.15;;;1.30;;
64225;SDS011;50545;56.064;26.178;2022-11-11T04:37:36;8.07;;;2.30;;
64225;SDS011;50545;56.064;26.178;2022-11-11T04:43:01;3.30;;;1.05;;
64225;SDS011;50545;56.064;26.178;2022-11-11T04:45:28;3.47;;;1.40;;
64225;SDS011;50545;56.064;26.178;2022-11-11T04:48:05;4.88;;;1.50;;
64225;SDS011;50545;56.064;26.178;2022-11-11T04:50:35;7.28;;;1.60;;
64225;SDS011;50545;56.064;26.178;2022-11-11T04:53:05;8.15;;;2.00;;
64225;SDS011;50545;56.064;26.178;2022-11-11T04:55:37;4.20;;;1.50;;
64225;SDS011;50545;56.064;26.178;2022-11-11T04:58:25;5.45;;;1.50;;
64225;SDS011;50545;56.064;26.178;2022-11-11T05:00:54;5.88;;;1.70;;
64225;SDS011;50545;56.064;26.178;2022-11-11T05:03:21;4.25;;;1.52;;
64225;SDS011;50545;56.064;26.178;2022-11-11T05:05:58;2.22;;;1.13;;
64225;SDS011;50545;56.064;26.178;2022-11-11T05:08:46;4.88;;;1.75;;
64225;SDS011;50545;56.064;26.178;2022-11-11T05:11:30;5.15;;;1.60;;
64225;SDS011;50545;56.064;26.178;2022-11-11T05:14:03;4.07;;;1.50;;
64225;SDS011;50545;56.064;26.178;2022-11-11T05:16:54;6.37;;;2.00;;
64225;SDS011;50545;56.064;26.178;2022-11-11T05:19:41;7.32;;;2.15;;
64225;SDS011;50545;56.064;26.178;2022-11-11T05:24:56;5.55;;;1.80;;
64225;SDS011;50545;56.064;26.178;2022-11-11T05:27:42;3.47;;;1.67;;
64225;SDS011;50545;56.064;26.178;2022-11-11T05:30:10;3.53;;;1.45;;
64225;SDS011;50545;56.064;26.178;2022-11-11T05:32:39;4.47;;;1.85;;
64225;SDS011;50545;56.064;26.178;2022-11-11T05:35:07;7.45;;;1.98;;
64225;SDS011;50545;56.064;26.178;2022-11-11T05:37:35;5.80;;;1.73;;
64225;SDS011;50545;56.064;26.178;2022-11-11T05:40:03;4.93;;;2.03;;
64225;SDS011;50545;56.064;26.178;2022-11-11T05:42:31;4.78;;;1.73;;
64225;SDS011;50545;56.064;26.178;2022-11-11T05:44:58;3.08;;;1.70;;
64225;SDS011;50545;56.064;26.178;2022-11-11T05:47:25;4.20;;;1.58;;
64225;SDS011;50545;56.064;26.178;2022-11-11T05:49:53;5.70;;;1.67;;
64225;SDS011;50545;56.064;26.178;2022-11-11T05:52:20;5.03;;;1.60;;
64225;SDS011;50545;56.064;26.178;2022-11-11T05:54:47;6.68;;;1.83;;
64225;SDS011;50545;56.064;26.178;2022-11-11T05:57:14;5.38;;;1.70;;
64225;SDS011;50545;56.064;26.178;2022-11-11T05:59:41;6.22;;;1.80;;
64225;SDS011;50545;56.064;26.178;2022-11-11T06:02:09;7.63;;;2.10;;
64225;SDS011;50545;56.064;26.178;2022-11-11T06:04:37;4.82;;;1.58;;
64225;SDS011;50545;56.064;26.178;2022-11-11T06:07:04;5.20;;;1.60;;
64225;SDS011;50545;56.064;26.178;2022-11-11T06:09:31;3.90;;;1.60;;
64225;SDS011;50545;56.064;26.178;2022-11-11T06:11:58;5.80;;;2.05;;
64225;SDS011;50545;56.064;26.178;2022-11-11T06:14:26;6.30;;;1.83;;
64225;SDS011;50545;56.064;26.178;2022-11-11T06:16:53;6.97;;;2.00;;
64225;SDS011;50545;56.064;26.178;2022-11-11T06:19:20;5.15;;;1.80;;
64225;SDS011;50545;56.064;26.178;2022-11-11T06:21:47;5.00;;;1.90;;
64225;SDS011;50545;56.064;26.178;2022-11-11T06:24:29;9.30;;;2.38;;
64225;SDS011;50545;56.064;26.178;2022-11-11T06:26:56;6.18;;;1.92;;
64225;SDS011;50545;56.064;26.178;2022-11-11T06:29:23;5.55;;;2.35;;
64225;SDS011;50545;56.064;26.178;2022-11-11T06:31:51;8.80;;;1.95;;
64225;SDS011;50545;56.064;26.178;2022-11-11T06:34:18;11.95;;;2.70;;
64225;SDS011;50545;56.064;26.178;2022-11-11T06:36:45;3.30;;;1.80;;
64225;SDS011;50545;56.064;26.178;2022-11-11T06:39:12;5.25;;;1.92;;
64225;SDS011;50545;56.064;26.178;2022-11-11T06:41:39;4.57;;;1.80;;
64225;SDS011;50545;56.064;26.178;2022-11-11T06:44:06;7.45;;;2.10;;
64225;SDS011;50545;56.064;26.178;2022-11-11T06:46:34;7.70;;;1.95;;
64225;SDS011;50545;56.064;26.178;2022-11-11T06:49:01;7.75;;;2.22;;
64225;SDS011;50545;56.064;26.178;2022-11-11T06:51:28;7.88;;;2.08;;
64225;SDS011;50545;56.064;26.178;2022-11-11T06:53:55;4.97;;;2.30;;
64225;SDS011;50545;56.064;26.178;2022-11-11T06:56:23;8.63;;;2.22;;
64225;SDS011;50545;56.064;26.178;2022-11-11T06:58:50;8.57;;;2.70;;
64225;SDS011;50545;56.064;26.178;2022-11-11T07:01:17;6.75;;;2.33;;
64225;SDS011;50545;56.064;26.178;2022-11-11T07:03:44;5.97;;;2.28;;
64225;SDS011;50545;56.064;26.178;2022-11-11T07:06:11;7.22;;;2.65;;
64225;SDS011;50545;56.064;26.178;2022-11-11T07:08:39;6.28;;;2.03;;
64225;SDS011;50545;56.064;26.178;2022-11-11T07:11:09;9.30;;;2.30;;
64225;SDS011;50545;56.064;26.178;2022-11-11T07:13:44;4.25;;;2.08;;
64225;SDS011;50545;56.064;26.178;2022-11-11T07:16:11;9.80;;;2.55;;
64225;SDS011;50545;56.064;26.178;2022-11-11T07:18:38;6.72;;;2.25;;
64225;SDS011;50545;56.064;26.178;2022-11-11T07:21:06;8.20;;;2.80;;
64225;SDS011;50545;56.064;26.178;2022-11-11T07:23:33;8.35;;;2.47;;
64225;SDS011;50545;56.064;26.178;2022-11-11T07:26:00;6.03;;;2.30;;
64225;SDS011;50545;56.064;26.178;2022-11-11T07:28:27;9.30;;;2.60;;
64225;SDS011;50545;56.064;26.178;2022-11-11T07:30:54;6.43;;;2.97;;
64225;SDS011;50545;56.064;26.178;2022-11-11T07:33:21;9.65;;;2.83;;
64225;SDS011;50545;56.064;26.178;2022-11-11T07:35:50;3.38;;;1.90;;
64225;SDS011;50545;56.064;26.178;2022-11-11T07:38:17;7.50;;;3.00;;
64225;SDS011;50545;56.064;26.178;2022-11-11T07:40:44;8.52;;;2.95;;
64225;SDS011;50545;56.064;26.178;2022-11-11T07:43:12;8.52;;;2.70;;
64225;SDS011;50545;56.064;26.178;2022-11-11T07:45:39;6.07;;;2.40;;
64225;SDS011;50545;56.064;26.178;2022-11-11T07:48:06;7.53;;;2.47;;
64225;SDS011;50545;56.064;26.178;2022-11-11T07:50:33;7.63;;;2.30;;
64225;SDS011;50545;56.064;26.178;2022-11-11T07:53:00;7.68;;;3.08;;
64225;SDS011;50545;56.064;26.178;2022-11-11T07:55:27;5.00;;;2.42;;
64225;SDS011;50545;56.064;26.178;2022-11-11T07:57:54;7.75;;;2.88;;
64225;SDS011;50545;56.064;26.178;2022-11-11T08:00:23;5.07;;;2.78;;
64225;SDS011;50545;56.064;26.178;2022-11-11T08:02:50;7.18;;;2.63;;
64225;SDS011;50545;56.064;26.178;2022-11-11T08:05:23;6.45;;;3.03;;
64225;SDS011;50545;56.064;26.178;2022-11-11T08:07:51;6.13;;;2.72;;
64225;SDS011;50545;56.064;26.178;2022-11-11T08:10:18;5.82;;;2.72;;
64225;SDS011;50545;56.064;26.178;2022-11-11T08:12:45;8.63;;;3.47;;
64225;SDS011;50545;56.064;26.178;2022-11-11T08:15:38;5.72;;;2.70;;
64225;SDS011;50545;56.064;26.178;2022-11-11T08:18:05;5.68;;;2.88;;
64225;SDS011;50545;56.064;26.178;2022-11-11T08:20:33;7.90;;;3.30;;
64225;SDS011;50545;56.064;26.178;2022-11-11T08:23:00;8.60;;;3.00;;
64225;SDS011;50545;56.064;26.178;2022-11-11T08:25:50;7.28;;;2.92;;
64225;SDS011;50545;56.064;26.178;2022-11-11T08:28:17;6.35;;;3.20;;
64225;SDS011;50545;56.064;26.178;2022-11-11T08:30:44;9.77;;;3.00;;
64225;SDS011;50545;56.064;26.178;2022-11-11T08:33:14;8.85;;;3.30;;
64225;SDS011;50545;56.064;26.178;2022-11-11T08:35:59;7.45;;;2.58;;
64225;SDS011;50545;56.064;26.178;2022-11-11T08:38:27;6.35;;;2.60;;
64225;SDS011;50545;56.064;26.178;2022-11-11T08:40:58;6.15;;;2.85;;
64225;SDS011;50545;56.064;26.178;2022-11-11T08:43:26;8.02;;;2.97;;
64225;SDS011;50545;56.064;26.178;2022-11-11T08:46:02;6.22;;;3.13;;
64225;SDS011;50545;56.064;26.178;2022-11-11T08:48:31;10.50;;;3.80;;
64225;SDS011;50545;56.064;26.178;2022-11-11T08:50:58;7.88;;;3.78;;
64225;SDS011;50545;56.064;26.178;2022-11-11T08:53:25;6.88;;;3.20;;
64225;SDS011;50545;56.064;26.178;2022-11-11T08:55:53;9.68;;;3.97;;
64225;SDS011;50545;56.064;26.178;2022-11-11T08:58:20;7.05;;;3.20;;
64225;SDS011;50545;56.064;26.178;2022-11-11T09:00:48;7.43;;;3.22;;
64225;SDS011;50545;56.064;26.178;2022-11-11T09:03:15;10.20;;;3.67;;
64225;SDS011;50545;56.064;26.178;2022-11-11T09:05:42;5.70;;;2.80;;
64225;SDS011;50545;56.064;26.178;2022-11-11T09:08:09;9.45;;;4.25;;
64225;SDS011;50545;56.064;26.178;2022-11-11T09:10:37;9.65;;;3.53;;
64225;SDS011;50545;56.064;26.178;2022-11-11T09:13:04;9.60;;;3.63;;
64225;SDS011;50545;56.064;26.178;2022-11-11T09:15:32;8.13;;;3.63;;
64225;SDS011;50545;56.064;26.178;2022-11-11T09:18:00;5.25;;;2.75;;
64225;SDS011;50545;56.064;26.178;2022-11-11T09:20:27;8.23;;;3.70;;
64225;SDS011;50545;56.064;26.178;2022-11-11T09:22:54;7.93;;;3.80;;
64225;SDS011;50545;56.064;26.178;2022-11-11T09:25:22;8.45;;;3.97;;
64225;SDS011;50545;56.064;26.178;2022-11-11T09:27:52;7.20;;;3.97;;
64225;SDS011;50545;56.064;26.178;2022-11-11T09:30:21;5.30;;;3.30;;
64225;SDS011;50545;56.064;26.178;2022-11-11T09:32:50;7.57;;;3.08;;
64225;SDS011;50545;56.064;26.178;2022-11-11T09:35:17;6.65;;;3.15;;
64225;SDS011;50545;56.064;26.178;2022-11-11T09:37:52;7.88;;;3.88;;
64225;SDS011;50545;56.064;26.178;2022-11-11T09:40:21;6.05;;;3.30;;
64225;SDS011;50545;56.064;26.178;2022-11-11T09:54:24;5.72;;;3.20;;
64225;SDS011;50545;56.064;26.178;2022-11-11T09:57:47;5.47;;;2.75;;
64225;SDS011;50545;56.064;26.178;2022-11-11T10:00:20;9.48;;;4.90;;
64225;SDS011;50545;56.064;26.178;2022-11-11T10:05:30;7.78;;;3.85;;
64225;SDS011;50545;56.064;26.178;2022-11-11T10:10:53;7.78;;;4.25;;
64225;SDS011;50545;56.064;26.178;2022-11-11T10:13:30;8.68;;;4.72;;
64225;SDS011;50545;56.064;26.178;2022-11-11T10:16:13;5.85;;;3.50;;
64225;SDS011;50545;56.064;26.178;2022-11-11T10:19:04;7.30;;;4.57;;
64225;SDS011;50545;56.064;26.178;2022-11-11T10:21:56;9.63;;;4.50;;
64225;SDS011;50545;56.064;26.178;2022-11-11T10:24:47;8.35;;;4.03;;
64225;SDS011;50545;56.064;26.178;2022-11-11T10:27:25;6.28;;;3.90;;
64225;SDS011;50545;56.064;26.178;2022-11-11T10:29:52;5.80;;;3.63;;
64225;SDS011;50545;56.064;26.178;2022-11-11T10:32:27;6.93;;;3.50;;
64225;SDS011;50545;56.064;26.178;2022-11-11T10:34:59;8.38;;;4.55;;
64225;SDS011;50545;56.064;26.178;2022-11-11T10:37:42;7.50;;;4.28;;
64225;SDS011;50545;56.064;26.178;2022-11-11T10:42:45;7.00;;;3.65;;
64225;SDS011;50545;56.064;26.178;2022-11-11T10:45:17;7.85;;;3.67;;
64225;SDS011;50545;56.064;26.178;2022-11-11T10:47:55;6.97;;;4.55;;
64225;SDS011;50545;56.064;26.178;2022-11-11T10:50:40;8.55;;;3.63;;
64225;SDS011;50545;56.064;26.178;2022-11-11T10:55:49;6.53;;;3.47;;
64225;SDS011;50545;56.064;26.178;2022-11-11T11:01:53;4.47;;;2.65;;
64225;SDS011;50545;56.064;26.178;2022-11-11T11:04:33;4.32;;;3.05;;
64225;SDS011;50545;56.064;26.178;2022-11-11T11:14:44;3.53;;;2.60;;
64225;SDS011;50545;56.064;26.178;2022-11-11T11:17:18;6.88;;;3.03;;
64225;SDS011;50545;56.064;26.178;2022-11-11T11:20:07;4.60;;;3.00;;
64225;SDS011;50545;56.064;26.178;2022-11-11T11:22:53;5.25;;;3.00;;
64225;SDS011;50545;56.064;26.178;2022-11-11T11:25:25;5.28;;;3.25;;
64225;SDS011;50545;56.064;26.178;2022-11-11T11:28:10;5.82;;;3.35;;
64225;SDS011;50545;56.064;26.178;2022-11-11T11:30:38;4.65;;;2.70;;
64225;SDS011;50545;56.064;26.178;2022-11-11T11:33:06;4.88;;;2.80;;
64225;SDS011;50545;56.064;26.178;2022-11-11T11:35:38;5.15;;;3.25;;
64225;SDS011;50545;56.064;26.178;2022-11-11T11:38:10;6.00;;;3.33;;
64225;SDS011;50545;56.064;26.178;2022-11-11T11:40:51;5.50;;;3.25;;
64225;SDS011;50545;56.064;26.178;2022-11-11T11:43:39;5.03;;;3.33;;
64225;SDS011;50545;56.064;26.178;2022-11-11T11:46:14;5.57;;;3.47;;
64225;SDS011;50545;56.064;26.178;2022-11-11T11:56:55;4.57;;;2.95;;
64225;SDS011;50545;56.064;26.178;2022-11-11T11:59:32;5.35;;;3.20;;
64225;SDS011;50545;56.064;26.178;2022-11-11T12:05:24;4.68;;;3.05;;
64225;SDS011;50545;56.064;26.178;2022-11-11T12:08:48;4.57;;;2.80;;
64225;SDS011;50545;56.064;26.178;2022-11-11T12:24:53;5.47;;;3.60;;
64225;SDS011;50545;56.064;26.178;2022-11-11T12:30:39;4.90;;;2.83;;
64225;SDS011;50545;56.064;26.178;2022-11-11T12:42:08;4.35;;;2.85;;
64225;SDS011;50545;56.064;26.178;2022-11-11T12:45:23;6.70;;;3.00;;
64225;SDS011;50545;56.064;26.178;2022-11-11T12:50:20;7.10;;;3.65;;
64225;SDS011;50545;56.064;26.178;2022-11-11T13:06:22;8.13;;;5.95;;
64225;SDS011;50545;56.064;26.178;2022-11-11T13:12:24;7.55;;;4.60;;
64225;SDS011;50545;56.064;26.178;2022-11-11T13:15:01;6.90;;;4.30;;
64225;SDS011;50545;56.064;26.178;2022-11-11T13:17:30;6.70;;;4.53;;
64225;SDS011;50545;56.064;26.178;2022-11-11T13:20:02;8.40;;;4.20;;
64225;SDS011;50545;56.064;26.178;2022-11-11T13:23:09;9.02;;;4.97;;
64225;SDS011;50545;56.064;26.178;2022-11-11T13:33:20;5.63;;;3.53;;
64225;SDS011;50545;56.064;26.178;2022-11-11T13:35:56;7.95;;;5.25;;
64225;SDS011;50545;56.064;26.178;2022-11-11T13:38:43;9.15;;;4.95;;
64225;SDS011;50545;56.064;26.178;2022-11-11T13:41:21;7.90;;;4.60;;
64225;SDS011;50545;56.064;26.178;2022-11-11T13:43:49;8.52;;;5.53;;
64225;SDS011;50545;56.064;26.178;2022-11-11T13:46:38;8.60;;;5.60;;
64225;SDS011;50545;56.064;26.178;2022-11-11T13:49:35;7.93;;;5.75;;
64225;SDS011;50545;56.064;26.178;2022-11-11T13:52:05;9.00;;;5.40;;
64225;SDS011;50545;56.064;26.178;2022-11-11T13:55:01;8.43;;;4.22;;
64225;SDS011;50545;56.064;26.178;2022-11-11T13:57:31;6.45;;;4.35;;
64225;SDS011;50545;56.064;26.178;2022-11-11T14:00:05;9.10;;;5.05;;
64225;SDS011;50545;56.064;26.178;2022-11-11T14:02:46;9.15;;;5.75;;
64225;SDS011;50545;56.064;26.178;2022-11-11T14:05:18;8.18;;;4.88;;
64225;SDS011;50545;56.064;26.178;2022-11-11T14:07:49;8.85;;;5.18;;
64225;SDS011;50545;56.064;26.178;2022-11-11T14:12:50;8.50;;;5.40;;
64225;SDS011;50545;56.064;26.178;2022-11-11T14:20:50;6.85;;;4.63;;
64225;SDS011;50545;56.064;26.178;2022-11-11T14:42:28;7.68;;;4.93;;
64225;SDS011;50545;56.064;26.178;2022-11-11T14:44:58;10.57;;;6.03;;
64225;SDS011;50545;56.064;26.178;2022-11-11T14:47:32;13.43;;;7.28;;
64225;SDS011;50545;56.064;26.178;2022-11-11T14:50:00;8.52;;;4.60;;
64225;SDS011;50545;56.064;26.178;2022-11-11T14:52:40;8.43;;;5.20;;
64225;SDS011;50545;56.064;26.178;2022-11-11T14:55:20;8.10;;;4.65;;
64225;SDS011;50545;56.064;26.178;2022-11-11T14:58:15;12.40;;;6.38;;
64225;SDS011;50545;56.064;26.178;2022-11-11T15:06:05;9.82;;;5.25;;
64225;SDS011;50545;56.064;26.178;2022-11-11T15:11:14;10.52;;;5.25;;
64225;SDS011;50545;56.064;26.178;2022-11-11T15:28:02;6.15;;;3.70;;
64225;SDS011;50545;56.064;26.178;2022-11-11T15:30:48;8.93;;;4.75;;
64225;SDS011;50545;56.064;26.178;2022-11-11T15:38:57;6.88;;;2.85;;
64225;SDS011;50545;56.064;26.178;2022-11-11T15:41:31;6.07;;;3.90;;
64225;SDS011;50545;56.064;26.178;2022-11-11T15:44:06;7.07;;;4.20;;
64225;SDS011;50545;56.064;26.178;2022-11-11T15:46:53;9.27;;;5.05;;
64225;SDS011;50545;56.064;26.178;2022-11-11T15:49:40;7.40;;;4.43;;
64225;SDS011;50545;56.064;26.178;2022-11-11T15:52:25;6.38;;;3.90;;
64225;SDS011;50545;56.064;26.178;2022-11-11T15:54:53;7.07;;;4.07;;
64225;SDS011;50545;56.064;26.178;2022-11-11T15:57:22;6.97;;;3.53;;
64225;SDS011;50545;56.064;26.178;2022-11-11T15:59:53;8.82;;;4.43;;
64225;SDS011;50545;56.064;26.178;2022-11-11T16:02:22;6.47;;;4.53;;
64225;SDS011;50545;56.064;26.178;2022-11-11T16:05:32;7.63;;;3.80;;
64225;SDS011;50545;56.064;26.178;2022-11-11T16:08:00;7.78;;;4.78;;
64225;SDS011;50545;56.064;26.178;2022-11-11T16:10:34;10.32;;;5.13;;
64225;SDS011;50545;56.064;26.178;2022-11-11T16:13:16;6.55;;;3.85;;
64225;SDS011;50545;56.064;26.178;2022-11-11T16:18:25;7.68;;;4.10;;
64225;SDS011;50545;56.064;26.178;2022-11-11T16:23:53;5.50;;;3.35;;
64225;SDS011;50545;56.064;26.178;2022-11-11T16:26:20;5.97;;;3.60;;
64225;SDS011;50545;56.064;26.178;2022-11-11T16:28:50;5.80;;;3.40;;
64225;SDS011;50545;56.064;26.178;2022-11-11T16:37:08;5.10;;;3.03;;
64225;SDS011;50545;56.064;26.178;2022-11-11T16:39:45;5.63;;;3.20;;
64225;SDS011;50545;56.064;26.178;2022-11-11T16:42:25;5.20;;;3.08;;
64225;SDS011;50545;56.064;26.178;2022-11-11T16:47:43;5.95;;;3.50;;
64225;SDS011;50545;56.064;26.178;2022-11-11T16:52:56;8.95;;;3.95;;
64225;SDS011;50545;56.064;26.178;2022-11-11T16:58:02;4.57;;;2.92;;
64225;SDS011;50545;56.064;26.178;2022-11-11T17:00:37;5.68;;;3.05;;
64225;SDS011;50545;56.064;26.178;2022-11-11T17:05:50;4.82;;;2.95;;
64225;SDS011;50545;56.064;26.178;2022-11-11T17:08:37;4.95;;;2.63;;
64225;SDS011;50545;56.064;26.178;2022-11-11T17:11:09;3.78;;;2.63;;
64225;SDS011;50545;56.064;26.178;2022-11-11T17:13:37;4.88;;;2.30;;
64225;SDS011;50545;56.064;26.178;2022-11-11T17:16:08;6.53;;;2.85;;
64225;SDS011;50545;56.064;26.178;2022-11-11T17:18:38;6.57;;;2.83;;
64225;SDS011;50545;56.064;26.178;2022-11-11T17:21:06;3.65;;;2.25;;
64225;SDS011;50545;56.064;26.178;2022-11-11T17:23:33;3.75;;;2.47;;
64225;SDS011;50545;56.064;26.178;2022-11-11T17:26:06;4.25;;;2.30;;
64225;SDS011;50545;56.064;26.178;2022-11-11T17:28:34;5.00;;;2.60;;
64225;SDS011;50545;56.064;26.178;2022-11-11T17:31:08;5.45;;;2.95;;
64225;SDS011;50545;56.064;26.178;2022-11-11T17:33:37;5.95;;;2.90;;
64225;SDS011;50545;56.064;26.178;2022-11-11T17:36:04;3.13;;;2.30;;
64225;SDS011;50545;56.064;26.178;2022-11-11T17:38:35;5.00;;;2.35;;
64225;SDS011;50545;56.064;26.178;2022-11-11T17:41:03;3.80;;;2.42;;
64225;SDS011;50545;56.064;26.178;2022-11-11T17:43:31;6.43;;;2.60;;
64225;SDS011;50545;56.064;26.178;2022-11-11T17:46:02;3.22;;;2.33;;
64225;SDS011;50545;56.064;26.178;2022-11-11T17:48:30;4.80;;;2.20;;
64225;SDS011;50545;56.064;26.178;2022-11-11T17:50:57;2.22;;;1.80;;
64225;SDS011;50545;56.064;26.178;2022-11-11T17:53:31;2.85;;;2.10;;
64225;SDS011;50545;56.064;26.178;2022-11-11T17:55:59;5.05;;;1.90;;
64225;SDS011;50545;56.064;26.178;2022-11-11T17:58:27;2.53;;;1.95;;
64225;SDS011;50545;56.064;26.178;2022-11-11T18:01:02;3.78;;;2.00;;
64225;SDS011;50545;56.064;26.178;2022-11-11T18:03:33;3.25;;;1.90;;
64225;SDS011;50545;56.064;26.178;2022-11-11T18:06:00;2.67;;;2.10;;
64225;SDS011;50545;56.064;26.178;2022-11-11T18:08:28;4.68;;;2.05;;
64225;SDS011;50545;56.064;26.178;2022-11-11T18:10:59;2.55;;;1.95;;
64225;SDS011;50545;56.064;26.178;2022-11-11T18:13:27;2.00;;;1.80;;
64225;SDS011;50545;56.064;26.178;2022-11-11T18:15:54;2.50;;;1.67;;